createdAt,value
2017-10-14T00:00:13.367Z,15.20
2017-10-14T00:02:41.944Z,15.20
2017-10-14T00:05:10.194Z,15.20
2017-10-14T00:07:38.446Z,15.10
2017-10-14T00:10:09.617Z,15.00
2017-10-14T00:12:37.864Z,15.00
2017-10-14T00:15:06.874Z,15.00
2017-10-14T00:17:35.146Z,15.00
2017-10-14T00:20:03.394Z,15.00
2017-10-14T00:22:31.637Z,15.00
2017-10-14T00:25:00.232Z,14.90
2017-10-14T00:27:28.474Z,14.90
2017-10-14T00:29:56.723Z,14.90
2017-10-14T00:32:25.754Z,14.90
2017-10-14T00:34:53.994Z,14.80
2017-10-14T00:37:23.434Z,14.80
2017-10-14T00:39:51.710Z,14.80
2017-10-14T00:42:19.958Z,14.80
2017-10-14T00:44:48.978Z,14.70
2017-10-14T00:47:17.337Z,14.70
2017-10-14T00:49:46.347Z,14.60
2017-10-14T00:52:14.599Z,14.60
2017-10-14T00:54:42.875Z,14.60
2017-10-14T00:57:11.896Z,14.50
2017-10-14T00:59:40.147Z,14.50
2017-10-14T01:02:08.430Z,14.50
2017-10-14T01:04:36.686Z,14.50
2017-10-14T01:07:04.934Z,14.40
2017-10-14T01:09:33.502Z,14.40
2017-10-14T01:12:01.760Z,14.30
2017-10-14T01:14:30.009Z,14.30
2017-10-14T01:16:58.285Z,14.20
2017-10-14T01:19:27.322Z,14.20
2017-10-14T01:21:55.570Z,14.20
2017-10-14T01:24:23.846Z,14.10
2017-10-14T01:26:52.098Z,14.10
2017-10-14T01:29:20.350Z,14.10
2017-10-14T01:31:48.914Z,14.00
2017-10-14T01:34:17.169Z,14.00
2017-10-14T01:36:45.418Z,13.90
2017-10-14T01:39:14.345Z,13.90
2017-10-14T01:41:42.595Z,13.90
2017-10-14T01:44:11.610Z,13.90
2017-10-14T01:46:39.885Z,13.90
2017-10-14T01:49:08.141Z,14.00
2017-10-14T01:51:37.158Z,14.10
2017-10-14T01:54:05.515Z,14.00
2017-10-14T01:56:34.538Z,14.20
2017-10-14T01:59:02.786Z,14.20
2017-10-14T02:01:31.059Z,14.20
2017-10-14T02:03:59.306Z,14.30
2017-10-14T02:06:27.555Z,14.30
2017-10-14T02:08:57.011Z,14.40
2017-10-14T02:11:26.018Z,14.40
2017-10-14T02:13:54.267Z,14.40
2017-10-14T02:16:22.718Z,14.40
2017-10-14T02:18:50.971Z,14.50
2017-10-14T02:21:19.222Z,14.50
2017-10-14T02:23:48.247Z,14.50
2017-10-14T02:26:16.495Z,14.50
2017-10-14T02:28:45.502Z,14.40
2017-10-14T02:31:13.771Z,14.40
2017-10-14T02:33:42.783Z,14.40
2017-10-14T02:36:11.022Z,14.40
2017-10-14T02:38:39.767Z,14.40
2017-10-14T02:41:08.406Z,14.40
2017-10-14T02:43:37.425Z,14.40
2017-10-14T02:46:05.690Z,14.40
2017-10-14T02:48:33.941Z,14.40
2017-10-14T02:51:02.189Z,14.50
2017-10-14T02:53:30.634Z,14.50
2017-10-14T02:55:58.870Z,14.50
2017-10-14T02:58:27.110Z,14.50
2017-10-14T03:00:55.422Z,14.50
2017-10-14T03:03:23.671Z,14.50
2017-10-14T03:05:52.067Z,14.50
2017-10-14T03:08:20.355Z,14.50
2017-10-14T03:10:48.829Z,14.50
2017-10-14T03:13:17.066Z,14.50
2017-10-14T03:15:45.326Z,14.50
2017-10-14T03:18:13.579Z,14.50
2017-10-14T03:20:42.593Z,14.50
2017-10-14T03:23:11.193Z,14.50
2017-10-14T03:25:39.430Z,14.50
2017-10-14T03:28:08.438Z,14.50
2017-10-14T03:30:37.473Z,14.50
2017-10-14T03:33:05.711Z,14.50
2017-10-14T03:35:33.966Z,14.50
2017-10-14T03:38:02.235Z,14.40
2017-10-14T03:40:30.490Z,14.40
2017-10-14T03:42:58.861Z,14.40
2017-10-14T03:45:27.535Z,14.30
2017-10-14T03:47:55.774Z,14.30
2017-10-14T03:50:24.781Z,14.40
2017-10-14T03:52:53.071Z,14.30
2017-10-14T03:55:21.318Z,14.40
2017-10-14T03:57:50.340Z,14.30
2017-10-14T04:00:18.610Z,14.30
2017-10-14T04:02:46.855Z,14.30
2017-10-14T04:05:15.875Z,14.30
2017-10-14T04:07:44.486Z,14.30
2017-10-14T04:10:12.738Z,14.30
2017-10-14T04:12:40.978Z,14.30
2017-10-14T04:15:09.246Z,14.20
2017-10-14T04:17:37.494Z,14.20
2017-10-14T04:20:05.747Z,14.20
2017-10-14T04:22:34.013Z,14.10
2017-10-14T04:25:02.259Z,14.10
2017-10-14T04:27:30.503Z,14.00
2017-10-14T04:29:59.097Z,14.10
2017-10-14T04:32:27.331Z,14.10
2017-10-14T04:34:55.571Z,14.10
2017-10-14T04:37:23.836Z,14.10
2017-10-14T04:39:52.091Z,14.10
2017-10-14T04:42:20.339Z,14.20
2017-10-14T04:44:49.566Z,14.20
2017-10-14T04:47:17.806Z,14.20
2017-10-14T04:49:46.050Z,14.20
2017-10-14T04:52:14.430Z,14.20
2017-10-14T04:54:42.680Z,14.20
2017-10-14T04:57:10.923Z,14.30
2017-10-14T04:59:39.229Z,14.30
2017-10-14T05:02:07.513Z,14.30
2017-10-14T05:04:35.755Z,14.30
2017-10-14T05:07:04.053Z,14.30
2017-10-14T05:09:32.352Z,14.30
2017-10-14T05:12:00.582Z,14.30
2017-10-14T05:14:28.996Z,14.40
2017-10-14T05:16:58.006Z,14.30
2017-10-14T05:19:26.253Z,14.20
2017-10-14T05:21:54.543Z,14.20
2017-10-14T05:24:22.770Z,14.20
2017-10-14T05:26:51.018Z,14.20
2017-10-14T05:29:19.290Z,14.20
2017-10-14T05:31:47.539Z,14.10
2017-10-14T05:34:15.780Z,14.10
2017-10-14T05:36:44.904Z,14.10
2017-10-14T05:39:13.144Z,14.00
2017-10-14T05:41:42.160Z,14.10
2017-10-14T05:44:10.426Z,14.00
2017-10-14T05:46:38.995Z,14.00
2017-10-14T05:49:07.998Z,14.10
2017-10-14T05:51:36.268Z,14.00
2017-10-14T05:54:05.286Z,14.00
2017-10-14T05:56:33.530Z,14.00
2017-10-14T05:59:02.222Z,13.90
2017-10-14T06:01:30.475Z,13.90
2017-10-14T06:03:58.718Z,14.00
2017-10-14T06:06:26.998Z,14.00
2017-10-14T06:08:55.247Z,14.00
2017-10-14T06:11:23.503Z,14.10
2017-10-14T06:13:51.782Z,14.10
2017-10-14T06:16:20.800Z,14.10
2017-10-14T06:18:49.051Z,14.00
2017-10-14T06:21:18.503Z,14.10
2017-10-14T06:23:46.754Z,14.00
2017-10-14T06:26:15.072Z,14.10
2017-10-14T06:28:43.339Z,14.10
2017-10-14T06:31:11.582Z,14.10
2017-10-14T06:33:39.830Z,14.20
2017-10-14T06:36:08.098Z,14.20
2017-10-14T06:38:36.346Z,14.20
2017-10-14T06:41:04.590Z,14.20
2017-10-14T06:43:33.186Z,14.20
2017-10-14T06:46:01.430Z,14.30
2017-10-14T06:48:29.868Z,14.30
2017-10-14T06:50:58.130Z,14.30
2017-10-14T06:53:26.382Z,14.30
2017-10-14T06:55:54.638Z,14.30
2017-10-14T06:58:22.910Z,14.40
2017-10-14T07:00:51.927Z,14.50
2017-10-14T07:03:20.302Z,14.50
2017-10-14T07:05:49.019Z,14.50
2017-10-14T07:08:17.266Z,14.50
2017-10-14T07:10:45.524Z,14.50
2017-10-14T07:13:13.810Z,14.60
2017-10-14T07:15:42.834Z,14.80
2017-10-14T07:18:11.082Z,14.70
2017-10-14T07:20:40.113Z,14.90
2017-10-14T07:23:08.370Z,14.80
2017-10-14T07:25:36.633Z,14.80
2017-10-14T07:28:05.703Z,14.80
2017-10-14T07:30:33.994Z,14.80
2017-10-14T07:33:02.244Z,14.90
2017-10-14T07:35:30.750Z,14.90
2017-10-14T07:37:59.794Z,14.90
2017-10-14T07:40:28.060Z,14.90
2017-10-14T07:42:56.328Z,15.00
2017-10-14T07:45:24.579Z,15.10
2017-10-14T07:47:53.597Z,15.20
2017-10-14T07:50:22.611Z,15.20
2017-10-14T07:52:50.863Z,15.20
2017-10-14T07:55:19.114Z,15.30
2017-10-14T07:57:47.386Z,15.50
2017-10-14T08:00:16.394Z,15.60
2017-10-14T08:02:45.411Z,15.70
2017-10-14T08:05:13.675Z,15.70
2017-10-14T08:07:42.109Z,15.80
2017-10-14T08:10:10.490Z,15.80
2017-10-14T08:12:38.815Z,15.80
2017-10-14T08:15:07.089Z,15.80
2017-10-14T08:17:35.341Z,15.90
2017-10-14T08:20:04.379Z,16.00
2017-10-14T08:22:32.618Z,16.00
2017-10-14T08:25:01.700Z,16.10
2017-10-14T08:27:29.978Z,16.10
2017-10-14T08:29:58.228Z,16.20
2017-10-14T08:32:26.471Z,16.30
2017-10-14T08:34:54.971Z,16.30
2017-10-14T08:37:23.233Z,16.50
2017-10-14T08:39:51.479Z,16.50
2017-10-14T08:42:19.753Z,16.60
2017-10-14T08:44:48.784Z,16.60
2017-10-14T08:47:17.028Z,16.60
2017-10-14T08:49:46.098Z,16.60
2017-10-14T08:52:14.353Z,16.60
2017-10-14T08:54:42.610Z,16.60
2017-10-14T08:57:10.934Z,16.60
2017-10-14T08:59:39.186Z,16.70
2017-10-14T09:02:07.429Z,16.70
2017-10-14T09:04:35.705Z,16.70
2017-10-14T09:07:03.946Z,16.80
2017-10-14T09:09:32.194Z,16.90
2017-10-14T09:12:00.474Z,16.90
2017-10-14T09:14:28.734Z,16.90
2017-10-14T09:16:56.978Z,16.90
2017-10-14T09:19:25.314Z,16.90
2017-10-14T09:21:53.571Z,16.90
2017-10-14T09:24:21.819Z,16.90
2017-10-14T09:26:50.114Z,16.90
2017-10-14T09:29:18.370Z,16.90
2017-10-14T09:31:46.627Z,17.00
2017-10-14T09:34:14.903Z,17.10
2017-10-14T09:36:43.926Z,17.60
2017-10-14T09:39:12.171Z,17.60
2017-10-14T09:41:41.889Z,19.30
2017-10-14T09:44:10.890Z,20.30
2017-10-14T09:46:39.150Z,20.30
2017-10-14T09:49:08.186Z,21.80
2017-10-14T09:51:36.835Z,21.80
2017-10-14T09:54:05.862Z,22.60
2017-10-14T09:56:34.130Z,22.60
2017-10-14T09:59:02.370Z,22.90
2017-10-14T10:01:30.622Z,23.20
2017-10-14T10:03:59.339Z,23.60
2017-10-14T10:06:28.352Z,24.40
2017-10-14T10:08:56.610Z,24.30
2017-10-14T10:11:24.885Z,24.70
2017-10-14T10:13:53.906Z,25.40
2017-10-14T10:16:22.158Z,25.30
2017-10-14T10:18:51.186Z,25.90
2017-10-14T10:21:19.696Z,25.90
2017-10-14T10:23:47.918Z,25.50
2017-10-14T10:26:17.014Z,25.20
2017-10-14T10:28:45.255Z,25.20
2017-10-14T10:31:13.499Z,25.80
2017-10-14T10:33:41.775Z,26.10
2017-10-14T10:36:10.083Z,26.40
2017-10-14T10:38:38.330Z,26.90
2017-10-14T10:41:06.594Z,27.50
2017-10-14T10:43:34.834Z,27.40
2017-10-14T10:46:03.075Z,27.30
2017-10-14T10:48:31.630Z,27.50
2017-10-14T10:50:59.895Z,27.20
2017-10-14T10:53:28.918Z,27.70
2017-10-14T10:55:57.558Z,27.70
2017-10-14T10:58:27.111Z,28.90
2017-10-14T11:00:56.446Z,29.40
2017-10-14T11:03:24.908Z,29.40
2017-10-14T11:05:54.319Z,29.70
2017-10-14T11:08:22.694Z,29.50
2017-10-14T11:10:51.463Z,29.60
2017-10-14T11:13:19.762Z,29.90
2017-10-14T11:15:50.211Z,30.20
2017-10-14T11:18:18.479Z,30.20
2017-10-14T11:20:46.719Z,30.30
2017-10-14T11:23:14.975Z,30.30
2017-10-14T11:25:44.451Z,30.50
2017-10-14T11:28:13.466Z,31.10
2017-10-14T11:30:41.714Z,31.10
2017-10-14T11:33:10.560Z,31.20
2017-10-14T11:35:38.862Z,31.50
2017-10-14T11:38:07.343Z,31.40
2017-10-14T11:40:35.642Z,31.40
2017-10-14T11:43:04.664Z,31.90
2017-10-14T11:45:34.838Z,31.90
2017-10-14T11:48:04.230Z,31.90
2017-10-14T11:50:32.518Z,32.10
2017-10-14T11:53:01.207Z,32.50
2017-10-14T11:55:29.674Z,32.80
2017-10-14T11:57:57.966Z,32.60
2017-10-14T12:00:26.500Z,32.30
2017-10-14T12:02:54.758Z,32.40
2017-10-14T12:05:24.949Z,32.90
2017-10-14T12:07:53.363Z,32.80
2017-10-14T12:10:22.060Z,32.90
2017-10-14T12:12:52.550Z,33.10
2017-10-14T12:15:20.932Z,33.40
2017-10-14T12:17:49.375Z,33.70
2017-10-14T12:20:17.782Z,33.60
2017-10-14T12:22:46.059Z,33.20
2017-10-14T12:25:14.541Z,32.50
2017-10-14T12:27:42.824Z,32.80
2017-10-14T12:30:11.281Z,33.10
2017-10-14T12:32:39.674Z,33.60
2017-10-14T12:35:08.864Z,33.60
2017-10-14T12:37:37.290Z,33.40
2017-10-14T12:40:06.736Z,34.10
2017-10-14T12:42:34.994Z,34.10
2017-10-14T12:45:03.303Z,34.80
2017-10-14T12:47:31.723Z,35.30
2017-10-14T12:50:02.829Z,35.40
2017-10-14T12:52:31.210Z,35.40
2017-10-14T12:54:59.617Z,34.00
2017-10-14T12:57:29.807Z,34.70
2017-10-14T12:59:58.246Z,34.70
2017-10-14T13:02:27.729Z,35.50
2017-10-14T13:04:56.239Z,35.50
2017-10-14T13:07:24.559Z,35.90
2017-10-14T13:09:53.938Z,36.30
2017-10-14T13:12:24.394Z,37.00
2017-10-14T13:14:53.692Z,37.00
2017-10-14T13:17:25.065Z,37.30
2017-10-14T13:19:53.679Z,37.00
2017-10-14T13:22:22.007Z,37.20
2017-10-14T13:24:50.468Z,37.00
2017-10-14T13:27:18.711Z,36.80
2017-10-14T13:29:47.074Z,37.10
2017-10-14T13:32:16.173Z,37.30
2017-10-14T13:34:44.478Z,37.30
2017-10-14T13:37:12.794Z,37.60
2017-10-14T13:39:41.314Z,38.10
2017-10-14T13:42:10.951Z,38.20
2017-10-14T13:44:39.227Z,37.90
2017-10-14T13:47:10.707Z,37.40
2017-10-14T13:49:38.995Z,37.60
2017-10-14T13:52:07.366Z,37.90
2017-10-14T13:54:36.435Z,38.20
2017-10-14T13:57:04.764Z,38.50
2017-10-14T13:59:33.109Z,38.70
2017-10-14T14:02:01.530Z,39.00
2017-10-14T14:04:31.782Z,37.00
2017-10-14T14:07:00.904Z,36.90
2017-10-14T14:09:29.492Z,36.50
2017-10-14T14:11:58.280Z,36.80
2017-10-14T14:14:28.000Z,35.90
2017-10-14T14:16:56.401Z,36.40
2017-10-14T14:19:24.749Z,36.90
2017-10-14T14:21:53.157Z,37.20
2017-10-14T14:24:21.715Z,36.80
2017-10-14T14:26:50.242Z,37.40
2017-10-14T14:29:19.538Z,38.50
2017-10-14T14:31:50.026Z,38.40
2017-10-14T14:34:18.833Z,38.40
2017-10-14T14:36:48.027Z,37.70
2017-10-14T14:39:16.442Z,37.20
2017-10-14T14:41:46.422Z,36.60
2017-10-14T14:44:15.214Z,36.90
2017-10-14T14:46:43.703Z,37.40
2017-10-14T14:49:13.024Z,37.80
2017-10-14T14:51:43.234Z,36.60
2017-10-14T14:54:11.934Z,36.50
2017-10-14T14:56:41.508Z,36.40
2017-10-14T14:59:10.292Z,36.40
2017-10-14T15:01:38.768Z,35.70
2017-10-14T15:04:07.152Z,35.00
2017-10-14T15:06:37.182Z,34.90
2017-10-14T15:09:09.563Z,35.40
2017-10-14T15:11:38.847Z,34.60
2017-10-14T15:14:07.239Z,34.60
2017-10-14T15:16:35.803Z,35.20
2017-10-14T15:19:04.067Z,34.50
2017-10-14T15:21:32.605Z,34.20
2017-10-14T15:24:01.071Z,34.60
2017-10-14T15:26:30.679Z,34.30
2017-10-14T15:28:59.970Z,34.60
2017-10-14T15:31:28.414Z,35.10
2017-10-14T15:33:56.746Z,34.50
2017-10-14T15:36:25.778Z,31.60
2017-10-14T15:38:56.432Z,31.50
2017-10-14T15:41:25.861Z,30.50
2017-10-14T15:43:54.238Z,29.70
2017-10-14T15:46:23.554Z,29.10
2017-10-14T15:48:52.855Z,28.50
2017-10-14T15:51:21.222Z,28.40
2017-10-14T15:53:49.610Z,28.20
2017-10-14T15:56:18.882Z,27.70
2017-10-14T15:58:47.134Z,27.30
2017-10-14T16:01:18.514Z,27.30
2017-10-14T16:03:47.099Z,27.20
2017-10-14T16:06:16.427Z,27.00
2017-10-14T16:08:46.659Z,26.70
2017-10-14T16:11:18.060Z,26.60
2017-10-14T16:13:46.464Z,26.60
2017-10-14T16:16:14.886Z,26.50
2017-10-14T16:18:43.241Z,26.30
2017-10-14T16:21:12.819Z,26.00
2017-10-14T16:23:41.310Z,26.00
2017-10-14T16:26:11.724Z,25.80
2017-10-14T16:28:40.224Z,25.70
2017-10-14T16:31:10.669Z,25.60
2017-10-14T16:33:39.692Z,25.30
2017-10-14T16:36:08.970Z,25.30
2017-10-14T16:38:37.342Z,25.10
2017-10-14T16:41:09.409Z,24.90
2017-10-14T16:43:38.751Z,24.80
2017-10-14T16:46:08.026Z,24.80
2017-10-14T16:48:36.351Z,24.70
2017-10-14T16:51:04.795Z,24.60
2017-10-14T16:53:36.191Z,24.40
2017-10-14T16:56:04.566Z,24.10
2017-10-14T16:58:32.971Z,24.00
2017-10-14T17:01:01.993Z,23.80
2017-10-14T17:03:30.514Z,23.80
2017-10-14T17:06:00.326Z,23.70
2017-10-14T17:08:28.626Z,23.60
2017-10-14T17:10:57.659Z,23.30
2017-10-14T17:13:35.194Z,23.30
2017-10-14T17:16:03.585Z,23.30
2017-10-14T17:18:32.881Z,23.20
2017-10-14T17:21:01.332Z,23.20
2017-10-14T17:23:29.640Z,23.20
2017-10-14T17:25:58.020Z,23.10
2017-10-14T17:28:30.413Z,23.00
2017-10-14T17:31:00.642Z,22.70
2017-10-14T17:33:30.866Z,22.70
2017-10-14T17:36:00.021Z,22.60
2017-10-14T17:38:28.299Z,22.60
2017-10-14T17:40:59.335Z,22.50
2017-10-14T17:43:31.729Z,22.40
2017-10-14T17:46:00.293Z,22.20
2017-10-14T17:48:29.901Z,22.00
2017-10-14T17:50:58.161Z,21.90
2017-10-14T17:53:28.730Z,21.70
2017-10-14T17:55:57.044Z,21.60
2017-10-14T17:58:25.374Z,21.50
2017-10-14T18:00:54.143Z,21.50
2017-10-14T18:03:22.506Z,21.40
2017-10-14T18:05:50.818Z,21.30
2017-10-14T18:08:19.222Z,21.20
2017-10-14T18:10:48.575Z,21.10
2017-10-14T18:13:16.964Z,21.10
2017-10-14T18:15:46.252Z,21.10
2017-10-14T18:18:15.482Z,20.90
2017-10-14T18:20:43.863Z,20.90
2017-10-14T18:23:12.351Z,20.80
2017-10-14T18:25:41.530Z,20.70
2017-10-14T18:28:11.559Z,20.60
2017-10-14T18:30:44.947Z,20.50
2017-10-14T18:33:20.630Z,20.40
2017-10-14T18:35:53.479Z,20.30
2017-10-14T18:38:21.866Z,20.20
2017-10-14T18:40:50.278Z,20.20
2017-10-14T18:43:19.370Z,20.00
2017-10-14T18:45:49.978Z,19.90
2017-10-14T18:48:18.233Z,19.90
2017-10-14T18:50:46.559Z,19.80
2017-10-14T18:53:16.759Z,19.70
2017-10-14T18:55:45.677Z,19.70
2017-10-14T18:58:14.211Z,19.70
2017-10-14T19:00:44.658Z,19.60
2017-10-14T19:03:13.038Z,19.50
2017-10-14T19:05:42.547Z,19.50
2017-10-14T19:08:11.014Z,19.40
2017-10-14T19:10:39.410Z,19.40
2017-10-14T19:13:08.731Z,19.40
2017-10-14T19:15:38.922Z,19.30
2017-10-14T19:18:07.516Z,19.20
2017-10-14T19:20:37.306Z,19.10
2017-10-14T19:23:05.598Z,19.10
2017-10-14T19:25:33.978Z,19.10
2017-10-14T19:28:06.474Z,19.00
2017-10-14T19:30:34.744Z,18.90
2017-10-14T19:33:03.781Z,18.90
2017-10-14T19:35:32.126Z,18.80
2017-10-14T19:38:02.334Z,18.70
2017-10-14T19:40:30.693Z,18.70
2017-10-14T19:42:59.112Z,18.70
2017-10-14T19:45:32.390Z,18.70
2017-10-14T19:48:00.946Z,18.60
2017-10-14T19:50:29.261Z,18.70
2017-10-14T19:52:58.542Z,18.60
2017-10-14T19:55:26.842Z,18.60
2017-10-14T19:57:57.058Z,18.50
2017-10-14T20:00:26.345Z,18.50
2017-10-14T20:02:55.855Z,18.40
2017-10-14T20:05:24.327Z,18.30
2017-10-14T20:07:53.642Z,18.30
2017-10-14T20:10:22.090Z,18.20
2017-10-14T20:12:50.379Z,18.20
2017-10-14T20:15:18.785Z,18.20
2017-10-14T20:17:47.842Z,18.10
2017-10-14T20:20:24.899Z,18.00
2017-10-14T20:22:56.211Z,18.00
2017-10-14T20:25:25.234Z,17.90
2017-10-14T20:27:53.558Z,17.90
2017-10-14T20:30:22.319Z,17.80
2017-10-14T20:32:52.805Z,17.80
2017-10-14T20:35:23.083Z,17.80
2017-10-14T20:37:54.541Z,17.80
2017-10-14T20:40:22.917Z,17.70
2017-10-14T20:42:53.658Z,17.70
2017-10-14T20:45:22.127Z,17.70
2017-10-14T20:47:50.430Z,17.60
2017-10-14T20:50:24.846Z,17.50
2017-10-14T20:52:53.337Z,17.50
2017-10-14T20:55:21.774Z,17.50
2017-10-14T20:57:50.103Z,17.50
2017-10-14T21:00:19.130Z,17.40
2017-10-14T21:02:48.513Z,17.40
2017-10-14T21:05:17.292Z,17.30
2017-10-14T21:07:45.762Z,17.20
2017-10-14T21:10:15.050Z,17.20
2017-10-14T21:12:43.535Z,17.10
2017-10-14T21:15:12.726Z,17.10
2017-10-14T21:17:41.114Z,17.00
2017-10-14T21:20:09.519Z,17.00
2017-10-14T21:22:39.781Z,16.90
2017-10-14T21:25:08.093Z,16.90
2017-10-14T21:27:36.536Z,16.80
2017-10-14T21:30:04.845Z,16.80
2017-10-14T21:32:33.231Z,16.70
2017-10-14T21:35:01.847Z,16.70
2017-10-14T21:37:30.295Z,16.70
2017-10-14T21:39:58.661Z,16.60
2017-10-14T21:42:27.111Z,16.50
2017-10-14T21:44:57.626Z,16.50
2017-10-14T21:47:25.958Z,16.40
2017-10-14T21:49:54.389Z,16.40
2017-10-14T21:52:22.719Z,16.40
2017-10-14T21:54:51.099Z,16.30
2017-10-14T21:57:20.534Z,16.30
2017-10-14T21:59:50.034Z,16.30
2017-10-14T22:02:19.068Z,16.20
2017-10-14T22:04:47.334Z,16.20
2017-10-14T22:07:15.641Z,16.10
2017-10-14T22:12:19.308Z,16.00
2017-10-14T22:14:48.322Z,16.00
2017-10-14T22:17:16.643Z,16.00
2017-10-14T22:19:45.370Z,16.00
2017-10-14T22:22:14.382Z,15.90
2017-10-14T22:24:42.630Z,16.00
2017-10-14T22:27:11.674Z,15.90
2017-10-14T22:29:39.923Z,15.90
2017-10-14T22:32:08.173Z,15.80
2017-10-14T22:34:36.437Z,15.80
2017-10-14T22:37:04.690Z,15.70
2017-10-14T22:39:32.967Z,15.50
2017-10-14T22:42:01.499Z,15.40
2017-10-14T22:44:29.758Z,15.50
2017-10-14T22:46:58.769Z,15.50
2017-10-14T22:49:27.046Z,15.50
2017-10-14T22:51:55.298Z,15.60
2017-10-14T22:54:23.549Z,15.60
2017-10-14T22:56:51.825Z,15.50
2017-10-14T22:59:20.070Z,15.40
2017-10-14T23:01:48.318Z,15.40
2017-10-14T23:04:16.838Z,15.30
2017-10-14T23:06:45.078Z,15.30
2017-10-14T23:09:13.670Z,15.30
2017-10-14T23:11:43.166Z,15.20
2017-10-14T23:14:11.414Z,15.20
2017-10-14T23:16:39.672Z,15.20
2017-10-14T23:19:07.939Z,15.10
2017-10-14T23:21:36.190Z,15.10
2017-10-14T23:24:04.442Z,15.10
2017-10-14T23:26:33.790Z,15.10
2017-10-14T23:29:02.038Z,15.00
2017-10-14T23:31:30.287Z,15.10
2017-10-14T23:33:58.554Z,15.00
2017-10-14T23:36:26.794Z,15.00
2017-10-14T23:38:55.050Z,14.90
2017-10-14T23:41:23.322Z,14.90
2017-10-14T23:43:51.581Z,14.90
2017-10-14T23:46:19.830Z,14.90
2017-10-14T23:48:48.239Z,14.80
2017-10-14T23:51:16.495Z,14.80
2017-10-14T23:53:44.738Z,14.80
2017-10-14T23:56:15.306Z,14.80
2017-10-14T23:58:43.568Z,14.80
